Nathrop, Colorado
Current Conditions -  °F | °C
As of 4:35 PM on Wednesday 22 Oct 2014 (Local Time) from KAEJ Reporting Station
Broken Clouds Broken Clouds  
Wind Chill: 52°   Ceiling: 9000
Heat Index: 52°   Visibility: 10mi
Dew Point: 35°   Wind: 10mph
Humidity: 51%   Direction: 230°SW
Pressure: 30.23"   Gusts: NA
Location:  38.75°N, 106.08°W
Report Text: KAEJ 222235Z AUTO 23009KT 10SM SCT047 SCT070 BKN090 11/01 A3023 RMK AO2 T01120014
Loading
Personal Weather Stations






























Interactive Weather Map New forecast layout! Learn more

10-Day Weather Forecast

Advertisements
Track Severe Weather on mobile